Flight Track Log - Related Links

Times and Time Zones

All times are in EST time to prevent confusion due to time zone crossing. See the N19MN flight status page for this flight to view local times or setup timezone preferences in your user account.

Time Position Orientation Groundspeed Altitude Reporting Facility
EST Latitude Longitude Course Direction KTS MPH feet Rate Location/Type
Tue 03:01:13 PM 38.5833 -90.1833 110° East 123 142 900  Level Gateway (St. Louis) TRACON
Tue 03:08:56 PM 38.5500 -90.0667 90° East 89 102 2,500 261 Climbing Gateway (St. Louis) TRACON
Tue 03:10:00 PM 38.2384 -90.2165 185° South  Level Estimated
Tue 03:10:02 PM 38.5167 -90.0833 201° Southwest 65 75 3,200  Level Gateway (St. Louis) TRACON
Tue 03:11:00 PM 38.1989 -90.2165 180° South  Level FlightAware Approximate
Tue 03:11:08 PM 38.5000 -90.0833 180° South 69 79 3,800  Level Gateway (St. Louis) TRACON
Tue 03:11:50 PM 38.4894 -90.0808 169° South 67 77 4,200 641 Climbing Kansas City Center
Tue 03:12:00 PM 38.1594 -90.2166 180° South  Level FlightAware Approximate
Tue 03:12:51 PM 38.4717 -90.0850 190° South 64 74 4,900  Level Kansas City Center
Tue 03:13:00 PM 38.1199 -90.2166 180° South  Level FlightAware Approximate
Tue 03:13:54 PM 38.4492 -90.0892 188° South 78 90 5,200  Level Kansas City Center
Tue 03:14:54 PM 38.4186 -90.0947 188° South 100 115 5,600 384 Climbing Kansas City Center
Tue 03:15:59 PM 38.3878 -90.1011 189° South 109 125 6,000 192 Climbing Kansas City Center
Tue 03:16:59 PM 38.3497 -90.1078 188° South 130 150 6,000  Level Kansas City Center
Tue 03:18:02 PM 38.3139 -90.1133 187° South 131 151 6,000  Level Kansas City Center
Tue 03:19:03 PM 38.2767 -90.1192 187° South 127 146 6,000  Level Kansas City Center
Tue 03:20:06 PM 38.2386 -90.1264 188° South 135 155 6,000  Level Kansas City Center
Tue 03:21:07 PM 38.1992 -90.1328 187° South 142 163 6,000  Level Kansas City Center
Tue 03:22:11 PM 38.1600 -90.1383 186° South 135 155 6,000 48 Level Kansas City Center
Tue 03:23:12 PM 38.1239 -90.1447 188° South 130 150 6,100 49 Climbing Kansas City Center
Tue 03:24:13 PM 38.0831 -90.1522 188° South 136 157 6,100  Level Kansas City Center
Tue 03:25:16 PM 38.0442 -90.1589 188° South 140 161 6,100  Level Kansas City Center
Tue 03:26:18 PM 38.0044 -90.1692 192° South 137 158 6,100  Level Kansas City Center
Tue 03:27:21 PM 37.9667 -90.1769 189° South 137 158 6,100  Level Kansas City Center
Tue 03:28:22 PM 37.9283 -90.1842 188° South 139 160 6,100  Level Kansas City Center
Tue 03:29:23 PM 37.8886 -90.1903 187° South 135 155 6,100  Level Kansas City Center
Tue 03:30:27 PM 37.8542 -90.1964 188° South 133 153 6,100  Level Kansas City Center
Tue 03:31:28 PM 37.8175 -90.2011 186° South 133 153 6,100  Level Kansas City Center
Tue 03:32:32 PM 37.7786 -90.2039 183° South 136 157 6,100  Level Kansas City Center
Tue 03:33:33 PM 37.7303 -90.2069 183° South 141 162 6,100  Level Kansas City Center
Tue 03:34:34 PM 37.6911 -90.2142 188° South 142 163 6,100  Level Kansas City Center
Tue 03:35:38 PM 37.6567 -90.2222 190° South 134 154 6,100  Level Kansas City Center
Tue 03:36:38 PM 37.6211 -90.2350 196° South 131 151 6,100  Level Kansas City Center
Tue 03:37:40 PM 37.5856 -90.2472 195° South 132 152 6,100  Level Kansas City Center
Tue 03:38:43 PM 37.5522 -90.2522 187° South 128 147 6,100  Level Kansas City Center
Tue 03:39:45 PM 37.5064 -90.2603 188° South 132 152 6,100  Level Kansas City Center
Tue 03:40:46 PM 37.4686 -90.2653 186° South 135 155 6,100  Level Kansas City Center
Tue 03:41:49 PM 37.4333 -90.2714 188° South 133 153 6,100  Level Kansas City Center
Tue 03:42:50 PM 37.3967 -90.2781 188° South 132 152 6,100  Level Kansas City Center
Tue 03:43:54 PM 37.3600 -90.2853 189° South 133 153 6,100  Level Kansas City Center
Tue 03:44:55 PM 37.3231 -90.2906 186° South 133 153 6,100 -48 Level Kansas City Center
Tue 03:45:59 PM 37.2794 -90.2981 188° South 132 152 6,000  Descending Kansas City Center
Tue 03:46:59 PM 37.2414 -90.3033 186° South 134 154 6,100 50 Climbing Kansas City Center
Tue 03:48:00 PM 37.2053 -90.3083 186° South 133 153 6,100  Level Kansas City Center
Tue 03:49:05 PM 37.1669 -90.3153 188° South 134 154 6,100  Level Kansas City Center
Tue 03:50:05 PM 37.1317 -90.3208 187° South 133 153 6,100  Level Kansas City Center
Tue 03:51:06 PM 37.0933 -90.3283 189° South 135 155 6,100  Level Kansas City Center
Tue 03:52:10 PM 37.0478 -90.3350 187° South 136 157 6,100  Level Kansas City Center
Tue 03:53:11 PM 37.0094 -90.3417 188° South 137 158 6,100  Level Kansas City Center
Tue 03:54:12 PM 36.9731 -90.3475 187° South 136 157 6,100  Level Kansas City Center
Tue 03:55:16 PM 36.9356 -90.3542 188° South 135 155 6,100  Level Kansas City Center
Tue 03:56:19 PM 36.8972 -90.3603 187° South 136 157 6,100 49 Level Kansas City Center
Tue 03:57:18 PM 36.8578 -90.3658 186° South 137 158 6,200 50 Climbing Memphis Center
Tue 03:58:20 PM 36.8192 -90.3728 188° South 139 160 6,200  Level Memphis Center
Tue 03:59:22 PM 36.7725 -90.3800 187° South 140 161 6,200  Level Memphis Center
Tue 04:00:24 PM 36.7342 -90.3861 187° South 139 160 6,200  Level Memphis Center
Tue 04:01:26 PM 36.6944 -90.3931 188° South 141 162 6,200 -48 Level Memphis Center
Tue 04:02:28 PM 36.6558 -90.4000 188° South 141 162 6,100 -48 Descending Memphis Center
Tue 04:03:30 PM 36.6158 -90.4072 188° South 142 163 6,100  Level Memphis Center
Tue 04:04:32 PM 36.5706 -90.4142 187° South 140 161 6,100  Level Memphis Center
Tue 04:05:34 PM 36.5317 -90.4200 187° South 140 161 6,100  Level Memphis Center
Tue 04:06:37 PM 36.4947 -90.4261 188° South 139 160 6,100  Level Memphis Center
Tue 04:07:39 PM 36.4558 -90.4322 187° South 138 159 6,100  Level Memphis Center
Tue 04:08:41 PM 36.4178 -90.4378 187° South 139 160 6,100  Level Memphis Center
Tue 04:09:43 PM 36.3794 -90.4442 188° South 139 160 6,100  Level Memphis Center
Tue 04:10:45 PM 36.3336 -90.4525 188° South 139 160 6,100  Level Memphis Center
Tue 04:11:47 PM 36.2967 -90.4581 187° South 137 158 6,100  Level Memphis Center
Tue 04:12:49 PM 36.2586 -90.4639 187° South 137 158 6,100  Level Memphis Center
Tue 04:13:51 PM 36.2208 -90.4703 188° South 137 158 6,100  Level Memphis Center
Tue 04:14:53 PM 36.1850 -90.4761 187° South 134 154 6,100  Level Memphis Center
Tue 04:15:55 PM 36.1481 -90.4814 187° South 134 154 6,100  Level Memphis Center
Tue 04:16:57 PM 36.1017 -90.4889 187° South 136 157 6,100  Level Memphis Center
Tue 04:18:00 PM 36.0658 -90.4950 188° South 135 155 6,100  Level Memphis Center
Tue 04:19:01 PM 36.0272 -90.5017 188° South 136 157 6,100  Level Memphis Center
Tue 04:20:04 PM 35.9903 -90.5069 187° South 135 155 6,100  Level Memphis Center
Tue 04:21:06 PM 35.9525 -90.5128 187° South 136 157 6,100  Level Memphis Center
Tue 04:22:08 PM 35.9161 -90.5181 187° South 135 155 6,100  Level Memphis Center
Tue 04:23:10 PM 35.8731 -90.5242 187° South 131 151 6,100  Level Memphis Center
Tue 04:24:12 PM 35.8356 -90.5311 189° South 133 153 6,100  Level Memphis Center
Tue 04:25:14 PM 35.7978 -90.5367 187° South 135 155 6,100  Level Memphis Center
Tue 04:26:16 PM 35.7603 -90.5425 187° South 135 155 6,100  Level Memphis Center
Tue 04:27:18 PM 35.7233 -90.5475 186° South 135 155 6,100  Level Memphis Center
Tue 04:28:20 PM 35.6869 -90.5522 186° South 133 153 6,100  Level Memphis Center
Tue 04:29:22 PM 35.6436 -90.5589 187° South 132 152 6,100 -48 Level Memphis Center
Tue 04:30:24 PM 35.6058 -90.5653 188° South 133 153 6,000  Descending Memphis Center
Tue 04:31:26 PM 35.5694 -90.5722 189° South 134 154 6,100 48 Climbing Memphis Center
Tue 04:32:28 PM 35.5325 -90.5764 185° South 133 153 6,100 -48 Level Memphis Center
Tue 04:33:30 PM 35.4969 -90.5825 188° South 131 151 6,000  Descending Memphis Center
Tue 04:34:32 PM 35.4611 -90.5875 186° South 130 150 6,100 48 Climbing Memphis Center
Tue 04:35:35 PM 35.4178 -90.5944 187° South 130 150 6,100  Level Memphis Center
Tue 04:36:37 PM 35.3814 -90.6006 188° South 130 150 6,100  Level Memphis Center
Tue 04:37:39 PM 35.3469 -90.6069 189° South 129 148 6,100  Level Memphis Center
Tue 04:38:41 PM 35.3097 -90.6131 188° South 130 150 6,100  Level Memphis Center
Tue 04:39:43 PM 35.2736 -90.6189 188° South 131 151 6,100  Level Memphis Center
Tue 04:40:45 PM 35.2375 -90.6233 186° South 130 150 6,100  Level Memphis Center
Tue 04:41:47 PM 35.2003 -90.6297 188° South 129 148 6,100 -48 Level Memphis Center
Tue 04:42:49 PM 35.1592 -90.6383 190° South 131 151 6,000  Descending Memphis Center
Tue 04:43:51 PM 35.1225 -90.6447 188° South 132 152 6,100 48 Climbing Memphis Center
Tue 04:44:53 PM 35.0853 -90.6494 186° South 133 153 6,100  Level Memphis Center
Tue 04:45:55 PM 35.0503 -90.6547 187° South 130 150 6,100  Level Memphis Center
Tue 04:46:57 PM 35.0153 -90.6603 187° South 128 147 6,100  Level Memphis Center
Tue 04:47:59 PM 34.9722 -90.6689 189° South 130 150 6,100 -48 Level Memphis Center
Tue 04:49:01 PM 34.9292 -90.6722 184° South 134 154 6,000 -8 Descending Memphis Center
Tue 05:00:36 PM 34.4986 -90.7403 188° South 146 168 6,000 Level Memphis Center
Tue 05:01:00 PM 34.5071 -90.7031 188° South  Level FlightAware Approximate
Tue 05:01:38 PM 34.4522 -90.7506 190° South 144 166 6,100  Level Memphis Center
Tue 05:02:00 PM 34.4722 -90.7087 188° South  Level FlightAware Approximate
Tue 05:02:40 PM 34.4142 -90.7575 189° South 143 165 6,100  Level Memphis Center
Tue 05:03:00 PM 34.4373 -90.7143 188° South  Level FlightAware Approximate
Tue 05:03:43 PM 34.3778 -90.7594 183° South 138 159 6,100  Level Memphis Center
Tue 05:04:00 PM 34.4023 -90.7199 188° South  Level FlightAware Approximate
Tue 05:04:45 PM 34.3386 -90.7669 189° South 139 160 6,100  Level Memphis Center
Tue 05:05:00 PM 34.3674 -90.7255 188° South  Level FlightAware Approximate
Tue 05:05:47 PM 34.3006 -90.7714 186° South 139 160 6,200  Level Memphis Center
Tue 05:06:49 PM 34.2531 -90.7794 188° South 141 162 6,100 -48 Descending Memphis Center
Tue 05:07:51 PM 34.2144 -90.7831 184° South 142 163 6,100  Level Memphis Center
Tue 05:08:53 PM 34.1772 -90.7881 186° South 139 160 6,100 48 Level Memphis Center
Tue 05:09:55 PM 34.1389 -90.7939 187° South 139 160 6,200 48 Climbing Memphis Center
Tue 05:10:57 PM 34.0994 -90.8000 187° South 140 161 6,200 -48 Level Memphis Center
Tue 05:11:59 PM 34.0525 -90.8069 187° South 141 162 6,100  Descending Memphis Center
Tue 05:13:01 PM 34.0136 -90.8128 187° South 142 163 6,200 48 Climbing Memphis Center
Tue 05:14:03 PM 33.9761 -90.8172 186° South 140 161 6,200  Level Memphis Center
Tue 05:15:05 PM 33.9372 -90.8250 189° South 140 161 6,200 -48 Level Memphis Center
Tue 05:16:07 PM 33.8994 -90.8303 187° South 139 160 6,100 -48 Descending Memphis Center
Tue 05:17:09 PM 33.8533 -90.8389 189° South 140 161 6,100  Level Memphis Center
Tue 05:18:11 PM 33.8142 -90.8447 187° South 141 162 6,100  Level Memphis Center
Tue 05:19:13 PM 33.7731 -90.8514 188° South 145 167 6,100  Level Memphis Center
Tue 05:20:15 PM 33.7319 -90.8572 187° South 147 169 6,100 48 Level Memphis Center
Tue 05:21:17 PM 33.6919 -90.8633 187° South 147 169 6,200  Climbing Memphis Center
Tue 05:22:19 PM 33.6450 -90.8706 187° South 145 167 6,100 -48 Descending Memphis Center
Tue 05:23:21 PM 33.6050 -90.8764 187° South 145 167 6,100  Level Memphis Center
Tue 05:24:23 PM 33.5667 -90.8806 185° South 143 165 6,100 48 Level Memphis Center
Tue 05:25:26 PM 33.5269 -90.8869 188° South 143 165 6,200  Climbing Memphis Center
Tue 05:26:28 PM 33.4883 -90.8928 187° South 142 163 6,100  Descending Memphis Center
Tue 05:27:30 PM 33.4414 -90.8986 186° South 142 163 6,200  Climbing Memphis Center
Tue 05:28:32 PM 33.4031 -90.9056 189° South 141 162 6,100 -48 Descending Memphis Center
Tue 05:29:34 PM 33.3658 -90.9136 190° South 140 161 6,100 48 Level Memphis Center
Tue 05:30:36 PM 33.3278 -90.9194 187° South 139 160 6,200  Climbing Memphis Center
Tue 05:31:38 PM 33.2900 -90.9247 187° South 138 159 6,100 -48 Descending Memphis Center
Tue 05:32:40 PM 33.2439 -90.9303 186° South 139 160 6,100  Level Memphis Center
Tue 05:33:42 PM 33.2056 -90.9361 187° South 139 160 6,100 48 Level Memphis Center
Tue 05:34:44 PM 33.1675 -90.9419 187° South 139 160 6,200 48 Climbing Memphis Center
Tue 05:35:46 PM 33.1289 -90.9461 185° South 139 160 6,200  Level Memphis Center
Tue 05:36:48 PM 33.0903 -90.9517 187° South 140 161 6,200  Level Memphis Center
Tue 05:37:50 PM 33.0436 -90.9592 188° South 141 162 6,200 -48 Level Memphis Center
Tue 05:38:52 PM 33.0053 -90.9656 188° South 140 161 6,100 -145 Descending Memphis Center
Tue 05:39:54 PM 32.9661 -90.9717 187° South 141 162 5,900 -336 Descending Memphis Center
Tue 05:40:57 PM 32.9250 -90.9783 188° South 144 166 5,400 -480 Descending Memphis Center
Tue 05:41:59 PM 32.8822 -90.9856 188° South 149 171 4,900 -484 Descending Memphis Center
Tue 05:43:01 PM 32.8314 -90.9950 189° South 153 176 4,400 -435 Descending Memphis Center
Tue 05:44:03 PM 32.7903 -90.9969 182° South 151 174 4,000 -387 Descending Memphis Center
Tue 05:45:05 PM 32.7489 -90.9983 182° South 150 173 3,600 -339 Descending Memphis Center
Tue 05:46:07 PM 32.7108 -91.0011 184° South 146 168 3,300 -242 Descending Memphis Center
Tue 05:47:09 PM 32.6722 -91.0047 185° South 143 165 3,100 -97 Descending Memphis Center
Tue 05:48:11 PM 32.6286 -91.0072 183° South 138 159 3,100  Level Memphis Center
Tue 05:49:13 PM 32.5950 -91.0108 185° South 131 151 3,100 -97 Level Memphis Center
Tue 05:50:15 PM 32.5611 -91.0136 184° South 126 145 2,900 -194 Descending Memphis Center

Login

Don't have an account? Register now (free) for customized features, flight alerts, and more!